Terminal Aerodrome Forecast
Issued by NWS

Home | Current Version | Previous Version | Graphics & Text | Print | Product List | Glossary On
Versions: 1 2 3 4 5 6 7 8 9 10 11 12 13 14 15 16 17 18 19 20 21 22
000
FTUS43 KABR 240500
TAFATY
TAF
KATY 240521Z 2406/2506 34015KT P6SM OVC006
      TEMPO 2406/2410 5SM BR OVC004
     FM241000 33015KT 5SM BR OVC005
      TEMPO 2410/2414 1SM BR OVC002
     FM241500 29010KT 5SM BR OVC010
     FM241800 22006KT P6SM BKN010 OVC050=

USA.gov is the U.S. government's official web portal to all federal, state and local government web resources and services.